sensor_id;sensor_type;location;lat;lon;timestamp;temperature;humidity
12268;DHT22;6196;48.398;11.736;2023-04-01T00:01:03;8.70;99.90
12268;DHT22;6196;48.398;11.736;2023-04-01T00:03:32;8.80;99.90
12268;DHT22;6196;48.398;11.736;2023-04-01T00:06:19;8.80;99.90
12268;DHT22;6196;48.398;11.736;2023-04-01T00:08:46;8.70;99.90
12268;DHT22;6196;48.398;11.736;2023-04-01T00:11:14;8.80;99.90
12268;DHT22;6196;48.398;11.736;2023-04-01T00:13:41;8.70;99.90
12268;DHT22;6196;48.398;11.736;2023-04-01T00:16:09;8.60;99.90
12268;DHT22;6196;48.398;11.736;2023-04-01T00:18:48;8.60;99.90
12268;DHT22;6196;48.398;11.736;2023-04-01T00:21:17;8.50;99.90
12268;DHT22;6196;48.398;11.736;2023-04-01T00:23:45;8.50;99.90
12268;DHT22;6196;48.398;11.736;2023-04-01T00:26:12;8.50;99.90
12268;DHT22;6196;48.398;11.736;2023-04-01T00:28:40;8.40;99.90
12268;DHT22;6196;48.398;11.736;2023-04-01T00:31:09;8.40;99.90
12268;DHT22;6196;48.398;11.736;2023-04-01T00:33:38;8.40;99.90
12268;DHT22;6196;48.398;11.736;2023-04-01T00:36:25;8.30;99.90
12268;DHT22;6196;48.398;11.736;2023-04-01T00:38:52;8.30;99.90
12268;DHT22;6196;48.398;11.736;2023-04-01T00:41:20;8.40;99.90
12268;DHT22;6196;48.398;11.736;2023-04-01T00:43:49;8.30;99.90
12268;DHT22;6196;48.398;11.736;2023-04-01T00:46:18;8.40;99.90
12268;DHT22;6196;48.398;11.736;2023-04-01T00:48:49;8.40;99.90
12268;DHT22;6196;48.398;11.736;2023-04-01T00:51:25;8.30;99.90
12268;DHT22;6196;48.398;11.736;2023-04-01T00:53:56;8.40;99.90
12268;DHT22;6196;48.398;11.736;2023-04-01T00:56:30;8.50;99.90
12268;DHT22;6196;48.398;11.736;2023-04-01T00:59:02;8.50;99.90
12268;DHT22;6196;48.398;11.736;2023-04-01T01:01:32;8.50;99.90
12268;DHT22;6196;48.398;11.736;2023-04-01T01:04:00;8.50;99.90
12268;DHT22;6196;48.398;11.736;2023-04-01T01:10:11;8.50;99.90
12268;DHT22;6196;48.398;11.736;2023-04-01T01:12:54;8.50;99.90
12268;DHT22;6196;48.398;11.736;2023-04-01T01:16:06;8.60;99.90
12268;DHT22;6196;48.398;11.736;2023-04-01T01:25:44;8.60;99.90
12268;DHT22;6196;48.398;11.736;2023-04-01T01:36:56;8.50;99.90
12268;DHT22;6196;48.398;11.736;2023-04-01T01:39:28;8.40;99.90
12268;DHT22;6196;48.398;11.736;2023-04-01T01:42:01;8.40;99.90
12268;DHT22;6196;48.398;11.736;2023-04-01T01:44:31;8.40;99.90
12268;DHT22;6196;48.398;11.736;2023-04-01T01:47:00;8.20;99.90
12268;DHT22;6196;48.398;11.736;2023-04-01T01:49:28;8.20;99.90
12268;DHT22;6196;48.398;11.736;2023-04-01T01:51:57;8.20;99.90
12268;DHT22;6196;48.398;11.736;2023-04-01T01:54:24;8.30;99.90
12268;DHT22;6196;48.398;11.736;2023-04-01T01:56:55;8.30;99.90
12268;DHT22;6196;48.398;11.736;2023-04-01T01:59:37;8.30;99.90
12268;DHT22;6196;48.398;11.736;2023-04-01T02:02:06;8.30;99.90
12268;DHT22;6196;48.398;11.736;2023-04-01T02:04:40;8.30;99.90
12268;DHT22;6196;48.398;11.736;2023-04-01T02:07:22;8.30;99.90
12268;DHT22;6196;48.398;11.736;2023-04-01T02:09:52;8.40;99.90
12268;DHT22;6196;48.398;11.736;2023-04-01T02:12:19;8.40;99.90
12268;DHT22;6196;48.398;11.736;2023-04-01T02:14:55;8.40;99.90
12268;DHT22;6196;48.398;11.736;2023-04-01T02:17:27;8.30;99.90
12268;DHT22;6196;48.398;11.736;2023-04-01T02:20:04;8.20;99.90
12268;DHT22;6196;48.398;11.736;2023-04-01T02:22:40;8.30;99.90
12268;DHT22;6196;48.398;11.736;2023-04-01T02:25:12;8.10;99.90
12268;DHT22;6196;48.398;11.736;2023-04-01T02:27:43;8.20;99.90
12268;DHT22;6196;48.398;11.736;2023-04-01T02:30:13;8.10;99.90
12268;DHT22;6196;48.398;11.736;2023-04-01T02:32:41;8.10;99.90
12268;DHT22;6196;48.398;11.736;2023-04-01T02:35:10;8.20;99.90
12268;DHT22;6196;48.398;11.736;2023-04-01T02:37:39;8.10;99.90
12268;DHT22;6196;48.398;11.736;2023-04-01T02:40:12;8.20;99.90
12268;DHT22;6196;48.398;11.736;2023-04-01T02:42:40;8.10;99.90
12268;DHT22;6196;48.398;11.736;2023-04-01T02:45:08;8.10;99.90
12268;DHT22;6196;48.398;11.736;2023-04-01T02:47:35;8.00;99.90
12268;DHT22;6196;48.398;11.736;2023-04-01T02:50:03;8.10;99.90
12268;DHT22;6196;48.398;11.736;2023-04-01T02:52:30;8.10;99.90
12268;DHT22;6196;48.398;11.736;2023-04-01T02:54:58;8.10;99.90
12268;DHT22;6196;48.398;11.736;2023-04-01T02:57:25;8.10;99.90
12268;DHT22;6196;48.398;11.736;2023-04-01T02:59:52;8.10;99.90
12268;DHT22;6196;48.398;11.736;2023-04-01T03:02:19;8.20;99.90
12268;DHT22;6196;48.398;11.736;2023-04-01T03:04:46;8.10;99.90
12268;DHT22;6196;48.398;11.736;2023-04-01T03:07:13;8.00;99.90
12268;DHT22;6196;48.398;11.736;2023-04-01T03:09:39;8.10;99.90
12268;DHT22;6196;48.398;11.736;2023-04-01T03:12:07;8.00;99.90
12268;DHT22;6196;48.398;11.736;2023-04-01T03:14:34;8.10;99.90
12268;DHT22;6196;48.398;11.736;2023-04-01T03:17:00;7.90;99.90
12268;DHT22;6196;48.398;11.736;2023-04-01T03:19:27;7.90;99.90
12268;DHT22;6196;48.398;11.736;2023-04-01T03:21:54;8.00;99.90
12268;DHT22;6196;48.398;11.736;2023-04-01T03:24:21;7.90;99.90
12268;DHT22;6196;48.398;11.736;2023-04-01T03:26:48;8.00;99.90
12268;DHT22;6196;48.398;11.736;2023-04-01T03:29:15;8.00;99.90
12268;DHT22;6196;48.398;11.736;2023-04-01T03:31:42;7.90;99.90
12268;DHT22;6196;48.398;11.736;2023-04-01T03:34:09;8.00;99.90
12268;DHT22;6196;48.398;11.736;2023-04-01T03:36:36;8.10;99.90
12268;DHT22;6196;48.398;11.736;2023-04-01T03:39:04;8.10;99.90
12268;DHT22;6196;48.398;11.736;2023-04-01T03:41:32;7.90;99.90
12268;DHT22;6196;48.398;11.736;2023-04-01T03:43:59;7.90;99.90
12268;DHT22;6196;48.398;11.736;2023-04-01T03:46:26;7.90;99.90
12268;DHT22;6196;48.398;11.736;2023-04-01T03:48:53;7.90;99.90
12268;DHT22;6196;48.398;11.736;2023-04-01T03:51:20;7.90;99.90
12268;DHT22;6196;48.398;11.736;2023-04-01T03:53:47;7.90;99.90
12268;DHT22;6196;48.398;11.736;2023-04-01T03:56:15;7.80;99.90
12268;DHT22;6196;48.398;11.736;2023-04-01T03:58:42;7.80;99.90
12268;DHT22;6196;48.398;11.736;2023-04-01T04:01:19;7.70;99.90
12268;DHT22;6196;48.398;11.736;2023-04-01T04:03:48;7.70;99.90
12268;DHT22;6196;48.398;11.736;2023-04-01T04:06:18;7.80;99.90
12268;DHT22;6196;48.398;11.736;2023-04-01T04:08:45;7.80;99.90
12268;DHT22;6196;48.398;11.736;2023-04-01T04:11:12;7.70;99.90
12268;DHT22;6196;48.398;11.736;2023-04-01T04:13:40;7.80;99.90
12268;DHT22;6196;48.398;11.736;2023-04-01T04:16:07;7.80;99.90
12268;DHT22;6196;48.398;11.736;2023-04-01T04:18:36;7.80;99.90
12268;DHT22;6196;48.398;11.736;2023-04-01T04:21:04;8.00;99.90
12268;DHT22;6196;48.398;11.736;2023-04-01T04:23:31;8.00;99.90
12268;DHT22;6196;48.398;11.736;2023-04-01T04:26:05;7.90;99.90
12268;DHT22;6196;48.398;11.736;2023-04-01T04:28:34;7.90;99.90
12268;DHT22;6196;48.398;11.736;2023-04-01T04:31:02;7.90;99.90
12268;DHT22;6196;48.398;11.736;2023-04-01T04:33:31;7.60;99.90
12268;DHT22;6196;48.398;11.736;2023-04-01T04:35:59;7.60;99.90
12268;DHT22;6196;48.398;11.736;2023-04-01T04:38:26;7.60;99.90
12268;DHT22;6196;48.398;11.736;2023-04-01T04:40:54;7.60;99.90
12268;DHT22;6196;48.398;11.736;2023-04-01T04:43:21;7.70;99.90
12268;DHT22;6196;48.398;11.736;2023-04-01T04:45:48;7.60;99.90
12268;DHT22;6196;48.398;11.736;2023-04-01T04:48:16;7.60;99.90
12268;DHT22;6196;48.398;11.736;2023-04-01T04:50:49;7.60;99.90
12268;DHT22;6196;48.398;11.736;2023-04-01T04:53:18;7.60;99.90
12268;DHT22;6196;48.398;11.736;2023-04-01T04:55:46;7.60;99.90
12268;DHT22;6196;48.398;11.736;2023-04-01T04:58:14;7.60;99.90
12268;DHT22;6196;48.398;11.736;2023-04-01T05:00:42;7.70;99.90
12268;DHT22;6196;48.398;11.736;2023-04-01T05:03:09;7.80;99.90
12268;DHT22;6196;48.398;11.736;2023-04-01T05:05:37;7.80;99.90
12268;DHT22;6196;48.398;11.736;2023-04-01T05:08:06;7.90;99.90
12268;DHT22;6196;48.398;11.736;2023-04-01T05:10:33;7.80;99.90
12268;DHT22;6196;48.398;11.736;2023-04-01T05:13:00;7.90;99.90
12268;DHT22;6196;48.398;11.736;2023-04-01T05:15:26;7.80;99.90
12268;DHT22;6196;48.398;11.736;2023-04-01T05:17:53;7.80;99.90
12268;DHT22;6196;48.398;11.736;2023-04-01T05:20:21;7.90;99.90
12268;DHT22;6196;48.398;11.736;2023-04-01T05:22:47;7.80;99.90
12268;DHT22;6196;48.398;11.736;2023-04-01T05:25:14;7.90;99.90
12268;DHT22;6196;48.398;11.736;2023-04-01T05:27:41;7.90;99.90
12268;DHT22;6196;48.398;11.736;2023-04-01T05:30:08;8.00;99.90
12268;DHT22;6196;48.398;11.736;2023-04-01T05:32:36;8.10;99.90
12268;DHT22;6196;48.398;11.736;2023-04-01T05:35:03;8.20;99.90
12268;DHT22;6196;48.398;11.736;2023-04-01T05:37:30;8.30;99.90
12268;DHT22;6196;48.398;11.736;2023-04-01T05:39:57;8.40;99.90
12268;DHT22;6196;48.398;11.736;2023-04-01T05:42:25;8.60;99.90
12268;DHT22;6196;48.398;11.736;2023-04-01T05:44:52;8.60;99.90
12268;DHT22;6196;48.398;11.736;2023-04-01T05:47:19;8.70;99.90
12268;DHT22;6196;48.398;11.736;2023-04-01T05:49:46;8.70;99.90
12268;DHT22;6196;48.398;11.736;2023-04-01T05:52:13;8.60;99.90
12268;DHT22;6196;48.398;11.736;2023-04-01T05:54:40;8.60;99.90
12268;DHT22;6196;48.398;11.736;2023-04-01T05:57:07;8.60;99.90
12268;DHT22;6196;48.398;11.736;2023-04-01T05:59:34;8.70;99.90
12268;DHT22;6196;48.398;11.736;2023-04-01T06:02:01;8.80;99.90
12268;DHT22;6196;48.398;11.736;2023-04-01T06:04:34;8.70;99.90
12268;DHT22;6196;48.398;11.736;2023-04-01T06:07:17;8.90;99.90
12268;DHT22;6196;48.398;11.736;2023-04-01T06:09:45;9.20;99.90
12268;DHT22;6196;48.398;11.736;2023-04-01T06:12:16;9.40;99.90
12268;DHT22;6196;48.398;11.736;2023-04-01T06:23:54;9.40;99.90
12268;DHT22;6196;48.398;11.736;2023-04-01T06:33:09;9.50;99.90
12268;DHT22;6196;48.398;11.736;2023-04-01T06:35:38;9.30;99.90
12268;DHT22;6196;48.398;11.736;2023-04-01T06:38:38;9.30;99.90
12268;DHT22;6196;48.398;11.736;2023-04-01T06:50:21;9.60;99.90
12268;DHT22;6196;48.398;11.736;2023-04-01T06:53:21;9.80;99.90
12268;DHT22;6196;48.398;11.736;2023-04-01T06:56:18;10.10;99.90
12268;DHT22;6196;48.398;11.736;2023-04-01T06:58:50;10.30;99.90
12268;DHT22;6196;48.398;11.736;2023-04-01T07:01:24;10.00;99.90
12268;DHT22;6196;48.398;11.736;2023-04-01T07:07:10;10.10;99.90
12268;DHT22;6196;48.398;11.736;2023-04-01T07:09:47;10.20;99.90
12268;DHT22;6196;48.398;11.736;2023-04-01T07:12:38;10.40;99.90
12268;DHT22;6196;48.398;11.736;2023-04-01T07:15:30;10.60;99.90
12268;DHT22;6196;48.398;11.736;2023-04-01T07:18:21;10.60;99.90
12268;DHT22;6196;48.398;11.736;2023-04-01T07:20:53;10.80;99.90
12268;DHT22;6196;48.398;11.736;2023-04-01T07:23:29;11.30;99.90
12268;DHT22;6196;48.398;11.736;2023-04-01T07:26:03;11.00;99.90
12268;DHT22;6196;48.398;11.736;2023-04-01T07:28:45;10.80;99.90
12268;DHT22;6196;48.398;11.736;2023-04-01T07:31:40;10.70;99.90
12268;DHT22;6196;48.398;11.736;2023-04-01T07:34:27;10.60;99.90
12268;DHT22;6196;48.398;11.736;2023-04-01T07:45:47;11.10;99.90
12268;DHT22;6196;48.398;11.736;2023-04-01T07:48:22;11.40;99.90
12268;DHT22;6196;48.398;11.736;2023-04-01T07:51:03;11.60;99.90
12268;DHT22;6196;48.398;11.736;2023-04-01T07:53:49;11.30;99.90
12268;DHT22;6196;48.398;11.736;2023-04-01T07:59:07;12.00;99.90
12268;DHT22;6196;48.398;11.736;2023-04-01T08:07:18;10.60;99.90
12268;DHT22;6196;48.398;11.736;2023-04-01T08:12:48;10.70;99.90
12268;DHT22;6196;48.398;11.736;2023-04-01T08:15:36;10.60;99.90
12268;DHT22;6196;48.398;11.736;2023-04-01T08:21:04;10.70;99.90
12268;DHT22;6196;48.398;11.736;2023-04-01T08:23:38;10.60;99.90
12268;DHT22;6196;48.398;11.736;2023-04-01T08:26:39;10.60;99.90
12268;DHT22;6196;48.398;11.736;2023-04-01T08:31:49;11.50;99.90
12268;DHT22;6196;48.398;11.736;2023-04-01T08:34:24;11.30;99.90
12268;DHT22;6196;48.398;11.736;2023-04-01T08:37:02;11.10;99.90
12268;DHT22;6196;48.398;11.736;2023-04-01T08:39:45;11.30;99.90
12268;DHT22;6196;48.398;11.736;2023-04-01T08:42:41;11.60;99.90
12268;DHT22;6196;48.398;11.736;2023-04-01T08:56:57;11.50;99.90
12268;DHT22;6196;48.398;11.736;2023-04-01T09:08:31;12.10;99.90
12268;DHT22;6196;48.398;11.736;2023-04-01T09:24:54;13.60;99.90
12268;DHT22;6196;48.398;11.736;2023-04-01T09:27:56;12.90;99.90
12268;DHT22;6196;48.398;11.736;2023-04-01T09:30:53;12.90;99.90
12268;DHT22;6196;48.398;11.736;2023-04-01T09:45:00;12.10;99.90
12268;DHT22;6196;48.398;11.736;2023-04-01T09:47:55;12.20;99.90
12268;DHT22;6196;48.398;11.736;2023-04-01T09:53:31;11.90;99.90
12268;DHT22;6196;48.398;11.736;2023-04-01T09:56:52;12.10;99.90
12268;DHT22;6196;48.398;11.736;2023-04-01T10:09:31;12.40;99.90
12268;DHT22;6196;48.398;11.736;2023-04-01T10:12:33;12.20;99.90
12268;DHT22;6196;48.398;11.736;2023-04-01T10:21:42;12.60;99.90
12268;DHT22;6196;48.398;11.736;2023-04-01T10:24:53;12.50;99.90
12268;DHT22;6196;48.398;11.736;2023-04-01T10:31:09;12.30;99.90
12268;DHT22;6196;48.398;11.736;2023-04-01T10:34:12;12.10;99.90
12268;DHT22;6196;48.398;11.736;2023-04-01T10:40:03;12.20;99.90
12268;DHT22;6196;48.398;11.736;2023-04-01T11:12:26;11.30;99.90
12268;DHT22;6196;48.398;11.736;2023-04-01T11:18:49;11.40;99.90
12268;DHT22;6196;48.398;11.736;2023-04-01T11:33:41;11.90;99.90
12268;DHT22;6196;48.398;11.736;2023-04-01T11:36:32;11.70;99.90
12268;DHT22;6196;48.398;11.736;2023-04-01T11:39:24;11.30;99.90
12268;DHT22;6196;48.398;11.736;2023-04-01T11:42:52;11.30;99.90
12268;DHT22;6196;48.398;11.736;2023-04-01T11:45:39;11.20;99.90
12268;DHT22;6196;48.398;11.736;2023-04-01T12:00:05;10.40;99.90
12268;DHT22;6196;48.398;11.736;2023-04-01T12:02:52;10.20;99.90
12268;DHT22;6196;48.398;11.736;2023-04-01T12:05:48;10.10;99.90
12268;DHT22;6196;48.398;11.736;2023-04-01T12:08:41;10.00;99.90
12268;DHT22;6196;48.398;11.736;2023-04-01T12:26:43;9.80;99.90
12268;DHT22;6196;48.398;11.736;2023-04-01T12:37:41;9.80;99.90
12268;DHT22;6196;48.398;11.736;2023-04-01T12:48:35;9.70;99.90
12268;DHT22;6196;48.398;11.736;2023-04-01T13:06:25;9.50;99.90
12268;DHT22;6196;48.398;11.736;2023-04-01T13:09:21;9.50;99.90
12268;DHT22;6196;48.398;11.736;2023-04-01T13:14:54;9.50;99.90
12268;DHT22;6196;48.398;11.736;2023-04-01T13:25:49;9.20;99.90
12268;DHT22;6196;48.398;11.736;2023-04-01T13:28:39;9.20;99.90
12268;DHT22;6196;48.398;11.736;2023-04-01T13:39:33;9.50;99.90
12268;DHT22;6196;48.398;11.736;2023-04-01T13:42:23;9.60;99.90
12268;DHT22;6196;48.398;11.736;2023-04-01T13:45:13;9.90;99.90
12268;DHT22;6196;48.398;11.736;2023-04-01T13:54:21;9.70;99.90
12268;DHT22;6196;48.398;11.736;2023-04-01T13:57:43;10.00;99.90
12268;DHT22;6196;48.398;11.736;2023-04-01T14:06:34;10.40;99.90
12268;DHT22;6196;48.398;11.736;2023-04-01T14:09:40;10.50;99.90
12268;DHT22;6196;48.398;11.736;2023-04-01T14:18:37;10.60;99.90
12268;DHT22;6196;48.398;11.736;2023-04-01T14:24:14;10.10;99.90
12268;DHT22;6196;48.398;11.736;2023-04-01T14:33:41;10.00;99.90
12268;DHT22;6196;48.398;11.736;2023-04-01T14:39:51;10.00;99.90
12268;DHT22;6196;48.398;11.736;2023-04-01T14:42:38;10.10;99.90
12268;DHT22;6196;48.398;11.736;2023-04-01T14:51:38;9.90;99.90
12268;DHT22;6196;48.398;11.736;2023-04-01T14:56:49;10.00;99.90
12268;DHT22;6196;48.398;11.736;2023-04-01T14:59:27;9.80;99.90
12268;DHT22;6196;48.398;11.736;2023-04-01T15:10:32;9.80;99.90
12268;DHT22;6196;48.398;11.736;2023-04-01T15:24:26;10.20;99.90
12268;DHT22;6196;48.398;11.736;2023-04-01T15:27:14;10.20;99.90
12268;DHT22;6196;48.398;11.736;2023-04-01T15:41:20;10.50;99.90
12268;DHT22;6196;48.398;11.736;2023-04-01T15:43:52;10.40;99.90
12268;DHT22;6196;48.398;11.736;2023-04-01T15:46:48;10.50;99.90
12268;DHT22;6196;48.398;11.736;2023-04-01T15:52:22;10.40;99.90
12268;DHT22;6196;48.398;11.736;2023-04-01T15:55:12;10.40;99.90
12268;DHT22;6196;48.398;11.736;2023-04-01T16:10:06;9.90;99.90
12268;DHT22;6196;48.398;11.736;2023-04-01T16:22:02;9.80;99.90
12268;DHT22;6196;48.398;11.736;2023-04-01T16:24:54;9.80;99.90
12268;DHT22;6196;48.398;11.736;2023-04-01T16:27:53;9.70;99.90
12268;DHT22;6196;48.398;11.736;2023-04-01T16:30:54;9.70;99.90
12268;DHT22;6196;48.398;11.736;2023-04-01T16:33:55;9.60;99.90
12268;DHT22;6196;48.398;11.736;2023-04-01T16:36:37;9.70;99.90
12268;DHT22;6196;48.398;11.736;2023-04-01T16:42:40;9.70;99.90
12268;DHT22;6196;48.398;11.736;2023-04-01T16:51:17;9.70;99.90
12268;DHT22;6196;48.398;11.736;2023-04-01T16:53:50;9.90;99.90
12268;DHT22;6196;48.398;11.736;2023-04-01T16:56:42;9.90;99.90
12268;DHT22;6196;48.398;11.736;2023-04-01T16:59:26;9.90;99.90
12268;DHT22;6196;48.398;11.736;2023-04-01T17:04:40;9.90;99.90
12268;DHT22;6196;48.398;11.736;2023-04-01T17:22:26;9.80;99.90
12268;DHT22;6196;48.398;11.736;2023-04-01T17:30:27;9.80;99.90
12268;DHT22;6196;48.398;11.736;2023-04-01T17:45:31;9.70;99.90
12268;DHT22;6196;48.398;11.736;2023-04-01T17:54:46;9.70;99.90
12268;DHT22;6196;48.398;11.736;2023-04-01T18:00:24;9.60;99.90
12268;DHT22;6196;48.398;11.736;2023-04-01T18:03:41;9.60;99.90
12268;DHT22;6196;48.398;11.736;2023-04-01T18:09:36;9.50;99.90
12268;DHT22;6196;48.398;11.736;2023-04-01T18:15:35;9.70;99.90
12268;DHT22;6196;48.398;11.736;2023-04-01T18:25:14;9.70;99.90
12268;DHT22;6196;48.398;11.736;2023-04-01T18:27:46;9.80;99.90
12268;DHT22;6196;48.398;11.736;2023-04-01T18:30:27;9.80;99.90
12268;DHT22;6196;48.398;11.736;2023-04-01T18:41:49;9.60;99.90
12268;DHT22;6196;48.398;11.736;2023-04-01T18:44:46;9.60;99.90
12268;DHT22;6196;48.398;11.736;2023-04-01T18:47:23;9.60;99.90
12268;DHT22;6196;48.398;11.736;2023-04-01T18:56:06;9.60;99.90
12268;DHT22;6196;48.398;11.736;2023-04-01T18:58:55;9.60;99.90
12268;DHT22;6196;48.398;11.736;2023-04-01T19:04:24;9.60;99.90
12268;DHT22;6196;48.398;11.736;2023-04-01T19:10:31;9.50;99.90
12268;DHT22;6196;48.398;11.736;2023-04-01T19:21:57;9.50;99.90
12268;DHT22;6196;48.398;11.736;2023-04-01T19:27:42;9.50;99.90
12268;DHT22;6196;48.398;11.736;2023-04-01T19:30:21;9.40;99.90
12268;DHT22;6196;48.398;11.736;2023-04-01T19:39:37;9.50;99.90
12268;DHT22;6196;48.398;11.736;2023-04-01T20:00:36;9.20;99.90
12268;DHT22;6196;48.398;11.736;2023-04-01T20:02:38;9.30;99.90
12268;DHT22;6196;48.398;11.736;2023-04-01T20:08:24;9.10;99.90
12268;DHT22;6196;48.398;11.736;2023-04-01T20:17:07;9.00;99.90
12268;DHT22;6196;48.398;11.736;2023-04-01T20:19:45;8.90;99.90
12268;DHT22;6196;48.398;11.736;2023-04-01T20:28:05;9.00;99.90
12268;DHT22;6196;48.398;11.736;2023-04-01T20:36:26;8.90;99.90
12268;DHT22;6196;48.398;11.736;2023-04-01T20:42:48;9.00;99.90
12268;DHT22;6196;48.398;11.736;2023-04-01T20:51:24;8.80;99.90
12268;DHT22;6196;48.398;11.736;2023-04-01T20:54:23;8.80;99.90
12268;DHT22;6196;48.398;11.736;2023-04-01T20:57:03;8.90;99.90
12268;DHT22;6196;48.398;11.736;2023-04-01T20:59:55;8.90;99.90
12268;DHT22;6196;48.398;11.736;2023-04-01T21:03:08;8.90;99.90
12268;DHT22;6196;48.398;11.736;2023-04-01T21:09:09;8.90;99.90
12268;DHT22;6196;48.398;11.736;2023-04-01T21:12:14;9.00;99.90
12268;DHT22;6196;48.398;11.736;2023-04-01T21:15:19;8.90;99.90
12268;DHT22;6196;48.398;11.736;2023-04-01T21:20:43;8.90;99.90
12268;DHT22;6196;48.398;11.736;2023-04-01T21:23:36;8.90;99.90
12268;DHT22;6196;48.398;11.736;2023-04-01T21:32:26;8.80;99.90
12268;DHT22;6196;48.398;11.736;2023-04-01T21:35:23;8.90;99.90
12268;DHT22;6196;48.398;11.736;2023-04-01T21:47:40;8.70;99.90
12268;DHT22;6196;48.398;11.736;2023-04-01T21:50:42;8.80;99.90
12268;DHT22;6196;48.398;11.736;2023-04-01T22:06:10;8.80;99.90
12268;DHT22;6196;48.398;11.736;2023-04-01T22:08:46;8.80;99.90
12268;DHT22;6196;48.398;11.736;2023-04-01T22:13:59;8.70;99.90
12268;DHT22;6196;48.398;11.736;2023-04-01T22:16:48;8.70;99.90
12268;DHT22;6196;48.398;11.736;2023-04-01T22:19:35;8.60;99.90
12268;DHT22;6196;48.398;11.736;2023-04-01T22:22:22;8.60;99.90
12268;DHT22;6196;48.398;11.736;2023-04-01T22:30:32;8.70;99.90
12268;DHT22;6196;48.398;11.736;2023-04-01T22:44:58;8.70;99.90
12268;DHT22;6196;48.398;11.736;2023-04-01T22:50:46;8.60;99.90
12268;DHT22;6196;48.398;11.736;2023-04-01T22:53:39;8.60;99.90
12268;DHT22;6196;48.398;11.736;2023-04-01T22:56:36;8.60;99.90
12268;DHT22;6196;48.398;11.736;2023-04-01T23:02:03;8.60;99.90
12268;DHT22;6196;48.398;11.736;2023-04-01T23:04:38;8.60;99.90
12268;DHT22;6196;48.398;11.736;2023-04-01T23:10:30;8.50;99.90
12268;DHT22;6196;48.398;11.736;2023-04-01T23:13:03;8.50;99.90
12268;DHT22;6196;48.398;11.736;2023-04-01T23:15:33;8.50;99.90
12268;DHT22;6196;48.398;11.736;2023-04-01T23:24:16;8.50;99.90
12268;DHT22;6196;48.398;11.736;2023-04-01T23:27:05;8.50;99.90
12268;DHT22;6196;48.398;11.736;2023-04-01T23:29:42;8.40;99.90
12268;DHT22;6196;48.398;11.736;2023-04-01T23:32:18;8.30;99.90
12268;DHT22;6196;48.398;11.736;2023-04-01T23:34:51;8.30;99.90
12268;DHT22;6196;48.398;11.736;2023-04-01T23:37:20;8.10;99.90
12268;DHT22;6196;48.398;11.736;2023-04-01T23:39:51;8.00;99.90
12268;DHT22;6196;48.398;11.736;2023-04-01T23:42:30;7.90;99.90
12268;DHT22;6196;48.398;11.736;2023-04-01T23:45:14;7.80;99.90
12268;DHT22;6196;48.398;11.736;2023-04-01T23:47:47;7.80;99.90
12268;DHT22;6196;48.398;11.736;2023-04-01T23:50:19;7.90;99.90
12268;DHT22;6196;48.398;11.736;2023-04-01T23:53:26;7.90;99.90
12268;DHT22;6196;48.398;11.736;2023-04-01T23:55:47;8.00;99.90
12268;DHT22;6196;48.398;11.736;2023-04-01T23:58:24;8.00;99.90
